Kamenica Nad Cirochou, Slovakia

3:48 AM CET on December 26, 2014 (GMT +0100)
Markovce MS2 | Change Station
CLOSE
Current Station
Personal Weather Station
Location: Markovce, KOšICKý KRAJ
Elevation: 384 ft
Nearby Weather Stations

Elev 384 ft 48.59 °N, 21.84 °E | Updated 4 seconds ago

Scattered Clouds
Scattered Clouds
27.5 °F
Feels Like 28 °F
N
3.0
Wind Variable Wind from NNE
Gusts 4.0 mph

Today
High -- | Low -- °F
--% Chance of Precip.
Yesterday
High -- | Low -- °F
Precip. -- in
7:24 AM 3:40 PM
Waxing Crescent, 21% visible
Pressure 30.06 in
Visibility 6.2 miles
Clouds Scattered Clouds 1500 ft
Windchill 28 °F
Dew Point 27 °F
Humidity 98%
Rainfall 0.00 in
Snow Depth Not available.
UV 0.0 out of 12
Pollen Not available.
Air Quality Not available.
Flu Activity Not available.
METAR LZKZ 260230Z VRB02KT 9999 SCT015 M03/M04 Q1018

More Conditions Fewer Conditions

Pressure 30.06 in
Visibility 6.2 miles
Clouds Scattered Clouds 1500 ft
Windchill 28 °F
Dew Point 27 °F
Humidity 98%
Rainfall 0.00 in
Snow Depth Not available.
UV 0.0 out of 12
Pollen Not available.
Air Quality Not available.
Flu Activity Not available.
METAR LZKZ 260230Z VRB02KT 9999 SCT015 M03/M04 Q1018

More Conditions Fewer Conditions

10-Day Weather Forecast

Almanac

Astronomy

Dec. 26, 2014 Rise Set
Actual Time
Civil Twilight
Nautical Twilight
Astronomical Twilight
Moon
Length of Visible Light
Length of Day
Tomorrow will be .
, % of the Moon is Illuminated

Today's Extremes

Country Highs Country Lows

Community

WunderPhotos

Upload Photos

1,780,519 photos uploaded!

WunderBlogs® & News

Nearby

Air Quality

  Air Quality AQ Index Pollutant
Not available.

Snow Depth

Station Depth Elevation

Earthquake Activity

City Distance Mag. Time & Date
Minimum magnitude displayed is 2.5.

Coastal Water Temperatures

Place Temperature

Nearby Weather Stations